Aeroporto :
LOGIN :

Iscrizione | Disclaimer

   EN    FR    IT 

 










Sommario :    VFR   VFR Marginale   IFR   IFR Intensivo   IFR Molto Intensivo
Visibilità : 
Base nubi : 
>= 8 km
>= 3000ft
5 / 8 km
1000 / 3000 ft
1500m / 5 km
500 / 1000 ft
800 / 1500m
200 / 500 ft
< 800m
< 200 ft
Simboli :   Temporali  Nebbia  Neve Forte  Precipitazioni Forti  Vento > 20 kt
SIGMETs :   Varie  Temporali  Ghiacco  Turbolenza  Onda orograficha  Ceneri Vulcaniche






- Altitudine del aeroporto : 22 ft
- Codice IATA : SKG


LGTS - Thessaloniki

ULTIMO METAR :
  • 280820Z 26009KT 9999 SCT025 20/11 Q1017 NOSIG

METARs OBSOLETI :
  • 280750Z 25010KT 9999 FEW030 19/11 Q1017 NOSIG
  • 280720Z 29011KT 9999 FEW030 19/10 Q1018 NOSIG
  • 280650Z 33011KT 9999 FEW030 18/10 Q1018 NOSIG
  • 280620Z 30013KT 9999 FEW030 17/10 Q1018 NOSIG
  • 280550Z 31009KT 9999 FEW030 17/09 Q1018 NOSIG

TAF TAF LGTS
Valido dal 28 a 06 ore il 29 a 06 ore UTC


280500Z 2806/2906 34010KT 9999 FEW030
BECMG 2808/2810 FEW020TCU SCT030
TEMPO 2810/2818 6000 SHRA
PROB40
TEMPO 2812/2818 4000 TSRA FEW015CB BKN025
BECMG 2818/2820 FEW030



MetMap, La meteo Aeronautica in un colpo d'occhio ! - Copyright ORBIFLY Dicembre 2007 - Disclaimer

ORBIFLY MET'MAP TEAM :

Programmazione e sviluppo : Alexandra Zaïnal
Concezione : Baudouin d'Aumeries
Aiuto per la programmazione : Marc-Olivier Méhu
Supporto tecnico e logistico : Manuel Goepfert
Aiuto per la traduzione : Arnaldo La Scala

Contatto : metmap@orbifly.com




FONTI E CREDITI :

   NOAA